createdAt,value
2022-09-10T00:01:31.306Z,14.80
2022-09-10T00:03:59.872Z,14.90
2022-09-10T00:06:29.164Z,15.00
2022-09-10T00:08:59.638Z,15.00
2022-09-10T00:11:31.127Z,15.10
2022-09-10T00:13:59.284Z,15.00
2022-09-10T00:16:28.707Z,15.00
2022-09-10T00:18:57.296Z,15.10
2022-09-10T00:21:25.468Z,15.20
2022-09-10T00:23:54.334Z,15.20
2022-09-10T00:26:26.708Z,15.30
2022-09-10T00:28:56.772Z,15.30
2022-09-10T00:31:25.267Z,15.30
2022-09-10T00:33:54.781Z,15.30
2022-09-10T00:36:24.387Z,15.30
2022-09-10T00:38:54.899Z,15.20
2022-09-10T00:41:26.035Z,15.10
2022-09-10T00:43:55.891Z,15.20
2022-09-10T00:46:29.596Z,15.20
2022-09-10T00:48:59.983Z,15.30
2022-09-10T00:51:31.022Z,15.30
2022-09-10T00:53:59.774Z,15.20
2022-09-10T00:56:30.139Z,15.10
2022-09-10T00:58:58.331Z,15.00
2022-09-10T01:01:26.479Z,15.10
2022-09-10T01:03:55.372Z,15.20
2022-09-10T01:06:23.939Z,15.20
2022-09-10T01:08:52.544Z,15.30
2022-09-10T01:11:44.984Z,15.40
2022-09-10T01:14:28.640Z,15.30
2022-09-10T01:17:06.266Z,15.30
2022-09-10T01:20:04.218Z,15.10
2022-09-10T01:22:46.050Z,15.10
2022-09-10T01:25:22.851Z,15.10
2022-09-10T01:27:55.690Z,15.20
2022-09-10T01:30:26.804Z,15.20
2022-09-10T01:33:05.082Z,15.10
2022-09-10T01:35:39.222Z,15.20
2022-09-10T01:38:10.878Z,15.20
2022-09-10T01:40:39.520Z,15.20
2022-09-10T01:43:10.294Z,15.20
2022-09-10T01:45:48.309Z,15.20
2022-09-10T01:48:49.873Z,15.10
2022-09-10T01:51:28.395Z,15.20
2022-09-10T01:54:11.389Z,15.10
2022-09-10T01:56:49.841Z,15.10
2022-09-10T01:59:29.092Z,15.10
2022-09-10T02:02:03.840Z,15.10
2022-09-10T02:04:32.690Z,15.10
2022-09-10T02:07:01.163Z,15.10
2022-09-10T02:09:29.076Z,15.20
2022-09-10T02:11:57.195Z,15.10
2022-09-10T02:14:26.843Z,15.10
2022-09-10T02:16:58.705Z,15.00
2022-09-10T02:19:27.531Z,15.00
2022-09-10T02:21:57.504Z,15.00
2022-09-10T02:24:25.586Z,15.00
2022-09-10T02:26:54.206Z,15.00
2022-09-10T02:29:23.400Z,15.00
2022-09-10T02:31:52.702Z,15.00
2022-09-10T02:34:21.584Z,15.00
2022-09-10T02:36:49.634Z,15.00
2022-09-10T02:39:17.715Z,15.00
2022-09-10T02:41:48.306Z,15.00
2022-09-10T02:44:16.215Z,14.90
2022-09-10T02:46:44.240Z,14.90
2022-09-10T02:49:13.621Z,14.90
2022-09-10T02:51:42.308Z,14.80
2022-09-10T02:54:10.483Z,14.80
2022-09-10T02:56:40.821Z,14.80
2022-09-10T02:59:08.737Z,14.80
2022-09-10T03:01:38.824Z,14.80
2022-09-10T03:04:08.002Z,14.80
2022-09-10T03:06:38.230Z,14.70
2022-09-10T03:09:06.490Z,14.70
2022-09-10T03:11:40.391Z,14.60
2022-09-10T03:14:10.947Z,14.60
2022-09-10T03:16:40.223Z,14.60
2022-09-10T03:19:08.179Z,14.60
2022-09-10T03:21:39.059Z,14.60
2022-09-10T03:24:08.686Z,14.60
2022-09-10T03:26:36.969Z,14.60
2022-09-10T03:29:05.200Z,14.60
2022-09-10T03:31:33.153Z,14.60
2022-09-10T03:34:01.334Z,14.60
2022-09-10T03:36:31.183Z,14.60
2022-09-10T03:39:00.824Z,14.60
2022-09-10T03:41:29.222Z,14.60
2022-09-10T03:43:57.534Z,14.70
2022-09-10T03:46:25.782Z,14.60
2022-09-10T03:48:55.435Z,14.60
2022-09-10T03:51:24.187Z,14.60
2022-09-10T03:53:52.487Z,14.50
2022-09-10T03:56:22.362Z,14.50
2022-09-10T03:58:51.067Z,14.60
2022-09-10T04:01:19.917Z,14.70
2022-09-10T04:03:48.328Z,14.60
2022-09-10T04:06:17.237Z,14.60
2022-09-10T04:08:45.289Z,14.60
2022-09-10T04:11:13.684Z,14.70
2022-09-10T04:13:42.962Z,14.70
2022-09-10T04:16:11.933Z,14.60
2022-09-10T04:18:40.102Z,14.60
2022-09-10T04:21:08.217Z,14.70
2022-09-10T04:23:36.257Z,14.70
2022-09-10T04:26:12.983Z,14.70
2022-09-10T04:28:42.778Z,14.70
2022-09-10T04:31:11.377Z,14.70
2022-09-10T04:33:39.639Z,14.70
2022-09-10T04:36:08.135Z,14.60
2022-09-10T04:38:40.107Z,14.60
2022-09-10T04:41:08.403Z,14.60
2022-09-10T04:43:37.681Z,14.60
2022-09-10T04:46:07.357Z,14.60
2022-09-10T04:48:35.649Z,14.60
2022-09-10T04:51:16.050Z,14.60
2022-09-10T04:53:44.798Z,14.60
2022-09-10T04:56:13.084Z,14.60
2022-09-10T04:58:41.853Z,14.60
2022-09-10T05:01:11.804Z,14.60
2022-09-10T05:03:40.134Z,14.60
2022-09-10T05:06:08.366Z,14.60
2022-09-10T05:08:36.695Z,14.50
2022-09-10T05:11:05.212Z,14.60
2022-09-10T05:13:33.363Z,14.50
2022-09-10T05:16:01.977Z,14.50
2022-09-10T05:18:31.186Z,14.50
2022-09-10T05:20:59.209Z,14.40
2022-09-10T05:23:27.243Z,14.50
2022-09-10T05:25:56.751Z,14.50
2022-09-10T05:28:24.932Z,14.50
2022-09-10T05:30:52.872Z,14.60
2022-09-10T05:33:21.653Z,14.60
2022-09-10T05:35:52.018Z,14.70
2022-09-10T05:38:20.553Z,14.60
2022-09-10T05:40:48.932Z,14.70
2022-09-10T05:43:16.804Z,14.70
2022-09-10T05:45:44.752Z,14.80
2022-09-10T05:48:13.258Z,14.80
2022-09-10T05:50:41.176Z,14.80
2022-09-10T05:53:10.735Z,14.80
2022-09-10T05:55:38.659Z,14.70
2022-09-10T05:58:07.868Z,14.70
2022-09-10T06:00:36.378Z,14.70
2022-09-10T06:03:05.568Z,14.70
2022-09-10T06:05:33.629Z,14.70
2022-09-10T06:08:06.538Z,14.80
2022-09-10T06:10:38.177Z,14.80
2022-09-10T06:13:07.213Z,14.80
2022-09-10T06:15:36.028Z,14.70
2022-09-10T06:18:03.884Z,14.60
2022-09-10T06:20:32.147Z,14.50
2022-09-10T06:23:00.317Z,14.50
2022-09-10T06:25:28.659Z,14.50
2022-09-10T06:27:58.215Z,14.40
2022-09-10T06:30:26.485Z,14.40
2022-09-10T06:32:54.633Z,14.40
2022-09-10T06:35:23.308Z,14.50
2022-09-10T06:37:51.415Z,14.50
2022-09-10T06:40:19.813Z,14.60
2022-09-10T06:42:48.515Z,14.60
2022-09-10T06:45:17.930Z,14.50
2022-09-10T06:48:34.730Z,14.60
2022-09-10T06:50:34.984Z,14.50
2022-09-10T06:53:05.161Z,14.40
2022-09-10T06:55:36.008Z,14.40
2022-09-10T06:58:04.099Z,14.50
2022-09-10T07:00:33.638Z,14.50
2022-09-10T07:03:02.376Z,14.60
2022-09-10T07:05:33.432Z,14.50
2022-09-10T07:08:03.699Z,14.70
2022-09-10T07:10:32.701Z,14.70
2022-09-10T07:13:02.082Z,14.60
2022-09-10T07:15:30.282Z,14.60
2022-09-10T07:17:59.494Z,14.60
2022-09-10T07:20:29.521Z,14.60
2022-09-10T07:22:58.680Z,14.50
2022-09-10T07:25:27.655Z,14.60
2022-09-10T07:27:56.040Z,14.60
2022-09-10T07:30:24.291Z,14.60
2022-09-10T07:32:52.186Z,14.70
2022-09-10T07:35:21.806Z,14.60
2022-09-10T07:37:49.802Z,14.60
2022-09-10T07:40:18.046Z,14.60
2022-09-10T07:42:46.014Z,14.70
2022-09-10T07:45:16.855Z,14.60
2022-09-10T07:47:45.501Z,14.70
2022-09-10T07:50:13.478Z,14.70
2022-09-10T07:52:43.214Z,14.80
2022-09-10T07:55:13.344Z,14.80
2022-09-10T07:57:42.014Z,14.90
2022-09-10T08:00:16.746Z,14.90
2022-09-10T08:02:47.067Z,14.90
2022-09-10T08:05:15.048Z,14.90
2022-09-10T08:07:45.169Z,15.00
2022-09-10T08:10:16.736Z,15.00
2022-09-10T08:12:44.757Z,15.00
2022-09-10T08:15:12.936Z,15.10
2022-09-10T08:17:40.919Z,15.10
2022-09-10T08:20:10.647Z,15.00
2022-09-10T08:22:38.847Z,15.00
2022-09-10T08:25:10.059Z,15.00
2022-09-10T08:27:38.593Z,15.00
2022-09-10T08:30:10.177Z,15.00
2022-09-10T08:32:38.474Z,15.00
2022-09-10T08:35:07.071Z,15.10
2022-09-10T08:37:35.462Z,15.10
2022-09-10T08:40:05.720Z,15.20
2022-09-10T08:42:42.891Z,15.10
2022-09-10T08:45:15.280Z,15.40
2022-09-10T08:47:53.637Z,15.40
2022-09-10T08:50:30.289Z,15.70
2022-09-10T08:53:05.245Z,15.80
2022-09-10T08:55:35.566Z,15.80
2022-09-10T08:58:14.446Z,15.70
2022-09-10T09:00:44.450Z,15.80
2022-09-10T09:03:19.520Z,15.70
2022-09-10T09:05:49.808Z,15.70
2022-09-10T09:08:21.732Z,15.70
2022-09-10T09:10:51.755Z,15.60
2022-09-10T09:13:48.506Z,15.60
2022-09-10T09:16:41.588Z,15.70
2022-09-10T09:19:20.520Z,15.70
2022-09-10T09:21:53.148Z,15.70
2022-09-10T09:24:36.077Z,15.70
2022-09-10T09:27:10.295Z,15.90
2022-09-10T09:29:45.545Z,16.00
2022-09-10T09:32:17.007Z,16.00
2022-09-10T09:34:50.819Z,16.10
2022-09-10T09:37:21.372Z,16.00
2022-09-10T09:39:59.590Z,15.90
2022-09-10T09:42:39.917Z,16.00
2022-09-10T09:45:22.012Z,16.10
2022-09-10T09:47:50.917Z,16.00
2022-09-10T09:50:19.601Z,16.00
2022-09-10T09:52:48.382Z,16.10
2022-09-10T09:55:26.575Z,16.30
2022-09-10T09:58:32.325Z,16.30
2022-09-10T10:01:20.746Z,16.30
2022-09-10T10:03:54.488Z,16.30
2022-09-10T10:06:25.460Z,16.40
2022-09-10T10:08:59.221Z,16.50
2022-09-10T10:11:48.705Z,16.60
2022-09-10T10:14:44.220Z,16.40
2022-09-10T10:17:37.595Z,16.30
2022-09-10T10:20:16.593Z,16.30
2022-09-10T10:22:46.453Z,16.20
2022-09-10T10:25:38.473Z,15.80
2022-09-10T10:28:19.839Z,15.70
2022-09-10T10:30:53.772Z,15.70
2022-09-10T10:33:28.996Z,15.60
2022-09-10T10:36:06.804Z,15.60
2022-09-10T10:38:37.627Z,15.50
2022-09-10T10:41:33.430Z,15.60
2022-09-10T10:44:33.882Z,15.70
2022-09-10T10:47:24.686Z,15.70
2022-09-10T10:50:04.420Z,15.70
2022-09-10T10:52:42.077Z,15.90
2022-09-10T10:55:23.347Z,16.00
2022-09-10T10:58:16.661Z,16.10
2022-09-10T11:00:51.348Z,16.30
2022-09-10T11:03:26.117Z,16.30
2022-09-10T11:06:02.916Z,16.50
2022-09-10T11:08:40.471Z,16.60
2022-09-10T11:11:14.461Z,16.80
2022-09-10T11:13:45.745Z,16.80
2022-09-10T11:16:20.260Z,16.60
2022-09-10T11:18:51.825Z,16.60
2022-09-10T11:21:31.186Z,16.60
2022-09-10T11:24:03.837Z,16.60
2022-09-10T11:26:37.794Z,16.50
2022-09-10T11:29:25.361Z,16.50
2022-09-10T11:32:00.865Z,16.70
2022-09-10T11:34:35.735Z,16.80
2022-09-10T11:37:13.953Z,17.00
2022-09-10T11:39:47.014Z,17.10
2022-09-10T11:42:21.097Z,16.90
2022-09-10T11:44:59.333Z,17.00
2022-09-10T11:47:32.482Z,17.30
2022-09-10T11:50:05.395Z,17.40
2022-09-10T11:52:35.861Z,17.40
2022-09-10T11:55:08.480Z,17.40
2022-09-10T11:57:42.592Z,17.60
2022-09-10T12:00:16.052Z,17.70
2022-09-10T12:03:24.024Z,17.60
2022-09-10T12:06:00.676Z,17.60
2022-09-10T12:08:43.214Z,17.70
2022-09-10T12:11:20.281Z,17.50
2022-09-10T12:13:51.126Z,17.50
2022-09-10T12:16:29.432Z,17.50
2022-09-10T12:19:00.180Z,17.30
2022-09-10T12:21:33.870Z,17.40
2022-09-10T12:24:08.394Z,17.60
2022-09-10T12:26:43.695Z,17.70
2022-09-10T12:29:31.469Z,17.30
2022-09-10T12:32:32.515Z,17.30
2022-09-10T12:35:42.696Z,17.50
2022-09-10T12:38:48.916Z,17.70
2022-09-10T12:41:50.576Z,17.90
2022-09-10T12:44:44.374Z,18.00
2022-09-10T12:47:39.988Z,17.70
2022-09-10T12:50:20.460Z,17.60
2022-09-10T12:53:18.091Z,17.60
2022-09-10T12:56:01.748Z,17.60
2022-09-10T12:58:43.234Z,17.70
2022-09-10T13:01:22.358Z,17.90
2022-09-10T13:03:56.199Z,18.00
2022-09-10T13:06:36.329Z,17.90
2022-09-10T13:09:17.001Z,18.10
2022-09-10T13:11:50.718Z,18.60
2022-09-10T13:14:22.843Z,19.00
2022-09-10T13:16:52.989Z,18.90
2022-09-10T13:19:51.062Z,18.70
2022-09-10T13:23:02.371Z,18.30
2022-09-10T13:25:39.740Z,18.40
2022-09-10T13:28:46.441Z,18.50
2022-09-10T13:31:25.644Z,18.50
2022-09-10T13:34:28.431Z,18.40
2022-09-10T13:37:21.331Z,18.40
2022-09-10T13:40:15.719Z,18.30
2022-09-10T13:43:05.694Z,18.40
2022-09-10T13:45:40.484Z,18.50
2022-09-10T13:48:17.271Z,18.50
2022-09-10T13:50:56.391Z,18.30
2022-09-10T13:53:27.819Z,18.20
2022-09-10T13:55:59.818Z,18.20
2022-09-10T13:58:32.955Z,18.20
2022-09-10T14:01:02.819Z,18.10
2022-09-10T14:03:32.638Z,18.20
2022-09-10T14:06:05.094Z,18.20
2022-09-10T14:08:35.851Z,18.20
2022-09-10T14:11:08.510Z,18.10
2022-09-10T14:13:43.046Z,18.00
2022-09-10T14:16:15.191Z,18.10
2022-09-10T14:18:47.870Z,18.20
2022-09-10T14:21:19.875Z,18.10
2022-09-10T14:23:50.184Z,18.40
2022-09-10T14:26:24.623Z,18.70
2022-09-10T14:28:59.315Z,18.70
2022-09-10T14:31:34.163Z,18.80
2022-09-10T14:34:30.104Z,18.70
2022-09-10T14:37:00.905Z,18.60
2022-09-10T14:39:31.757Z,18.40
2022-09-10T14:42:11.597Z,18.40
2022-09-10T14:44:48.280Z,18.50
2022-09-10T14:47:28.904Z,18.30
2022-09-10T14:50:29.926Z,18.10
2022-09-10T14:53:01.337Z,18.00
2022-09-10T14:55:32.203Z,18.00
2022-09-10T14:58:04.662Z,17.90
2022-09-10T15:00:34.052Z,18.00
2022-09-10T15:03:03.193Z,18.00
2022-09-10T15:05:31.564Z,17.90
2022-09-10T15:08:03.718Z,17.90
2022-09-10T15:10:32.035Z,17.90
2022-09-10T15:13:02.696Z,17.90
2022-09-10T15:15:35.626Z,17.90
2022-09-10T15:18:14.221Z,17.90
2022-09-10T15:20:42.803Z,18.10
2022-09-10T15:23:18.806Z,18.10
2022-09-10T15:25:52.407Z,18.00
2022-09-10T15:28:23.642Z,17.90
2022-09-10T15:30:54.469Z,17.60
2022-09-10T15:33:22.531Z,17.50
2022-09-10T15:35:50.478Z,17.20
2022-09-10T15:38:21.722Z,16.50
2022-09-10T15:40:51.217Z,15.90
2022-09-10T15:43:20.085Z,15.60
2022-09-10T15:45:50.640Z,15.60
2022-09-10T15:48:18.517Z,15.60
2022-09-10T15:50:49.350Z,15.40
2022-09-10T15:53:17.229Z,15.20
2022-09-10T15:55:47.449Z,15.00
2022-09-10T15:58:15.533Z,14.80
2022-09-10T16:00:43.502Z,14.70
2022-09-10T16:03:11.984Z,14.50
2022-09-10T16:05:39.937Z,14.40
2022-09-10T16:08:07.919Z,14.30
2022-09-10T16:10:39.860Z,14.30
2022-09-10T16:13:09.504Z,14.40
2022-09-10T16:15:38.257Z,14.40
2022-09-10T16:18:06.582Z,14.30
2022-09-10T16:20:34.624Z,14.30
2022-09-10T16:23:04.226Z,14.30
2022-09-10T16:25:32.361Z,14.30
2022-09-10T16:28:00.792Z,14.30
2022-09-10T16:30:31.746Z,14.30
2022-09-10T16:32:59.680Z,14.40
2022-09-10T16:35:27.931Z,14.40
2022-09-10T16:37:56.288Z,14.40
2022-09-10T16:40:28.933Z,14.50
2022-09-10T16:42:56.895Z,14.50
2022-09-10T16:45:25.075Z,14.70
2022-09-10T16:47:55.211Z,14.80
2022-09-10T16:50:23.544Z,14.70
2022-09-10T16:52:52.136Z,14.70
2022-09-10T16:55:20.186Z,14.70
2022-09-10T16:57:48.298Z,14.80
2022-09-10T17:00:16.816Z,14.70
2022-09-10T17:02:44.880Z,14.90
2022-09-10T17:05:14.224Z,14.90
2022-09-10T17:07:42.188Z,14.80
2022-09-10T17:10:11.019Z,14.90
2022-09-10T17:12:38.994Z,15.00
2022-09-10T17:15:07.589Z,15.00
2022-09-10T17:17:35.569Z,15.10
2022-09-10T17:20:04.004Z,15.10
2022-09-10T17:22:33.331Z,15.10
2022-09-10T17:25:01.386Z,15.10
2022-09-10T17:27:30.986Z,15.20
2022-09-10T17:29:58.957Z,15.20
2022-09-10T17:32:26.919Z,15.20
2022-09-10T17:34:55.109Z,15.00
2022-09-10T17:37:24.317Z,15.00
2022-09-10T17:39:53.779Z,15.00
2022-09-10T17:42:21.777Z,15.10
2022-09-10T17:44:49.767Z,15.10
2022-09-10T17:47:17.886Z,15.10
2022-09-10T17:49:45.970Z,15.10
2022-09-10T17:52:14.605Z,15.20
2022-09-10T17:54:43.078Z,15.10
2022-09-10T17:57:12.546Z,15.00
2022-09-10T17:59:43.548Z,15.10
2022-09-10T18:02:19.371Z,15.10
2022-09-10T18:04:51.223Z,15.00
2022-09-10T18:07:21.784Z,15.00
2022-09-10T18:09:50.039Z,15.00
2022-09-10T18:12:23.150Z,15.00
2022-09-10T18:14:53.199Z,15.00
2022-09-10T18:17:21.753Z,14.90
2022-09-10T18:19:50.953Z,14.90
2022-09-10T18:22:19.033Z,14.90
2022-09-10T18:24:47.247Z,14.90
2022-09-10T18:27:15.438Z,15.00
2022-09-10T18:29:45.168Z,15.00
2022-09-10T18:32:15.010Z,15.00
2022-09-10T18:34:46.246Z,14.90
2022-09-10T18:37:14.635Z,14.90
2022-09-10T18:39:42.832Z,14.90
2022-09-10T18:42:11.124Z,14.80
2022-09-10T18:44:39.551Z,14.90
2022-09-10T18:47:27.873Z,14.90
2022-09-10T18:50:01.170Z,14.90
2022-09-10T18:52:29.549Z,15.00
2022-09-10T18:54:57.511Z,15.00
2022-09-10T18:57:26.062Z,15.00
2022-09-10T18:59:55.562Z,15.00
2022-09-10T19:02:25.442Z,15.00
2022-09-10T19:05:11.652Z,15.10
2022-09-10T19:07:40.303Z,15.10
2022-09-10T19:10:09.132Z,15.10
2022-09-10T19:12:37.294Z,15.20
2022-09-10T19:15:06.494Z,15.20
2022-09-10T19:17:38.043Z,15.20
2022-09-10T19:20:07.856Z,15.20
2022-09-10T19:22:36.927Z,15.20
2022-09-10T19:25:05.220Z,15.20
2022-09-10T19:27:35.045Z,15.20
2022-09-10T19:30:03.509Z,15.10
2022-09-10T19:32:31.791Z,15.10
2022-09-10T19:35:01.289Z,15.10
2022-09-10T19:37:29.553Z,15.10
2022-09-10T19:39:57.605Z,15.10
2022-09-10T19:42:25.863Z,15.10
2022-09-10T19:44:55.370Z,15.10
2022-09-10T19:47:23.837Z,15.10
2022-09-10T19:49:51.959Z,15.10
2022-09-10T19:52:24.674Z,15.10
2022-09-10T19:54:52.833Z,15.10
2022-09-10T19:57:21.846Z,15.10
2022-09-10T19:59:49.898Z,15.10
2022-09-10T20:02:18.129Z,15.00
2022-09-10T20:04:46.431Z,15.10
2022-09-10T20:07:17.120Z,15.10
2022-09-10T20:09:47.041Z,15.20
2022-09-10T20:12:16.353Z,15.10
2022-09-10T20:14:44.493Z,15.10
2022-09-10T20:17:16.382Z,15.10
2022-09-10T20:19:44.850Z,15.10
2022-09-10T20:22:13.181Z,15.00
2022-09-10T20:24:41.277Z,15.00
2022-09-10T20:27:10.981Z,15.00
2022-09-10T20:29:40.214Z,15.00
2022-09-10T20:32:08.240Z,15.00
2022-09-10T20:34:36.754Z,15.00
2022-09-10T20:37:06.886Z,15.00
2022-09-10T20:39:36.281Z,15.00
2022-09-10T20:42:05.276Z,15.00
2022-09-10T20:44:35.073Z,15.00
2022-09-10T20:47:04.008Z,15.00
2022-09-10T20:49:32.156Z,14.90
2022-09-10T20:52:00.712Z,15.00
2022-09-10T20:54:31.002Z,15.00
2022-09-10T20:57:01.383Z,15.00
2022-09-10T20:59:33.430Z,14.90
2022-09-10T21:02:02.779Z,14.90
2022-09-10T21:04:31.513Z,14.90
2022-09-10T21:06:59.490Z,14.80
2022-09-10T21:09:29.865Z,14.90
2022-09-10T21:11:57.926Z,14.90
2022-09-10T21:14:29.462Z,14.90
2022-09-10T21:16:57.625Z,14.90
2022-09-10T21:19:27.405Z,14.90
2022-09-10T21:21:55.568Z,14.90
2022-09-10T21:24:24.035Z,14.90
2022-09-10T21:26:53.224Z,15.00
2022-09-10T21:29:23.101Z,15.00
2022-09-10T21:31:53.340Z,14.90
2022-09-10T21:34:21.696Z,15.00
2022-09-10T21:36:57.683Z,15.00
2022-09-10T21:39:26.396Z,15.00
2022-09-10T21:41:56.769Z,15.00
2022-09-10T21:44:25.470Z,15.00
2022-09-10T21:46:54.481Z,15.00
2022-09-10T21:49:23.262Z,15.00
2022-09-10T21:51:53.378Z,14.90
2022-09-10T21:54:24.416Z,15.00
2022-09-10T21:56:53.410Z,15.00
2022-09-10T21:59:22.177Z,14.90
2022-09-10T22:01:50.726Z,14.90
2022-09-10T22:04:22.771Z,14.90
2022-09-10T22:06:53.906Z,14.90
2022-09-10T22:09:22.575Z,14.90
2022-09-10T22:11:53.196Z,14.90
2022-09-10T22:14:29.059Z,14.90
2022-09-10T22:16:57.332Z,14.90
2022-09-10T22:19:27.374Z,14.90
2022-09-10T22:21:57.370Z,15.00
2022-09-10T22:24:26.159Z,15.00
2022-09-10T22:26:54.553Z,14.90
2022-09-10T22:29:23.643Z,14.90
2022-09-10T22:31:51.870Z,14.90
2022-09-10T22:34:20.821Z,14.90
2022-09-10T22:36:49.551Z,15.00
2022-09-10T22:39:22.271Z,14.90
2022-09-10T22:41:51.580Z,14.90
2022-09-10T22:44:20.379Z,14.90
2022-09-10T22:46:48.740Z,14.90
2022-09-10T22:49:17.116Z,14.90
2022-09-10T22:51:45.337Z,15.00
2022-09-10T22:54:13.269Z,15.00
2022-09-10T22:56:44.513Z,14.90
2022-09-10T22:59:14.648Z,14.90
2022-09-10T23:01:47.343Z,14.90
2022-09-10T23:04:16.109Z,14.90
2022-09-10T23:06:44.277Z,14.90
2022-09-10T23:09:14.562Z,14.90
2022-09-10T23:11:45.269Z,14.90
2022-09-10T23:14:17.881Z,14.90
2022-09-10T23:16:48.841Z,14.80
2022-09-10T23:19:18.555Z,14.90
2022-09-10T23:21:48.772Z,14.80
2022-09-10T23:24:19.412Z,14.80
2022-09-10T23:26:49.523Z,14.80
2022-09-10T23:29:17.905Z,14.80
2022-09-10T23:31:48.068Z,14.90
2022-09-10T23:34:18.349Z,14.90
2022-09-10T23:36:48.266Z,14.90
2022-09-10T23:39:18.585Z,14.80
2022-09-10T23:41:48.233Z,14.90
2022-09-10T23:44:16.977Z,14.90
2022-09-10T23:46:45.879Z,14.90
2022-09-10T23:49:14.445Z,14.80
2022-09-10T23:51:42.542Z,14.90
2022-09-10T23:54:11.263Z,14.90
2022-09-10T23:56:40.115Z,14.90
2022-09-10T23:59:12.096Z,14.80
